Archival Weather

Alykel

Alykel, Russia (UOOO)

Report from: Tuesday, November 21, 2023 8:00 PM UTC
Current time: Friday, July 19, 2024 2:20 AM UTC

Current weather – Weather history – Daily summaries
Weather forecast

Present weatherLight snow, drifting snow
Temperature-27.0°C (-16.6°F)
Wind chill-38.7°C (-37.6°F)
Dew point-30.0°C (-22.0°F)
Winds 9.7 kts (5 m/s, 11.2 mph) South (170°)
Visibility6.2 mi. (10 km)
Clouds Few clouds 600 ft. (183 m)
Ceiling: Broken clouds 1,300 ft. (396 m)
Altimeter30.36 in.Hg (1028 mB)
Precip. events QF 7:35 AM
Relative humidity75 %
Density altitude-5,971 ft. (-1,820 m)
Remarks No significant changes expected in the next two hours
Flight conditions Marginal Visual Meteorological Conditions
Raw dataUOOO 212000Z 17005MPS 9999 -SN DRSN FEW006 BKN013 M27/M30 Q1028 R19/35//60 NOSIG RMK QFE755/1007
An error has occurred. This application may no longer respond until reloaded. Reload 🗙